Nearby METAR Reports

 

KCRE - North Myrtle Bea, South Carolina, USA
Distance from station: SW 7mi, 11km
Updated: Tue, 18-Jun-2019 6:27am EDT
Partly cloudy
Partly cloudy
 Wind from SW
Wind: SW 6 mph , 9 km/h
Temperature: 79°F , 26°C
Dew Point: 75°F , 24°C
Humidity: 89%
Barometer: 30.06 inHg , 1017.9 hPa
Clouds: Partly cloudy
Visibility: 10 miles , 16 km
Cloud details: Few Clouds 1300 ft
Few Clouds 2200 ft
Partly cloudy 2800 ft
2019/06/18 10:27 KCRE 181027Z AUTO 23005KT 10SM FEW013 FEW022 SCT028 26/24 A3006 RMK AO1 T02560244
KMYR - Myrtle Beach, South Carolina, USA
Distance from station: SW 22mi, 36km
Updated: Tue, 18-Jun-2019 5:56am EDT
Clear
Clear
 Wind from calm
Wind: Calm
Temperature: 77°F , 25°C
Dew Point: 75°F , 24°C
Humidity: 94%
Barometer: 30.06 inHg , 1017.9 hPa
Clouds: Clear
Visibility: 10 miles , 16 km
2019/06/18 09:56 KMYR 180956Z 00000KT 10SM CLR 25/24 A3006 RMK AO2 SLP179 T02500239
 
KCPC - Whiteville, North Carolina, USA
Distance from station: N 28mi, 45km
Updated: Tue, 18-Jun-2019 6:20am EDT
Mist, Overcast
Mist, Overcast
 Wind from calm
Wind: Calm
Temperature: 73°F , 23°C
Dew Point: 73°F , 23°C
Humidity: 100%
Barometer: 30.06 inHg , 1017.9 hPa
Summary: Mist
Clouds: Overcast
Visibility: 2 1/2 miles , 4 km
Cloud details: Overcast 100 ft
2019/06/18 10:20 KCPC 181020Z AUTO 00000KT 2 1/2SM BR OVC001 23/23 A3006 RMK AO2 T02290225
KHYW - Conway-Horry Cty, South Carolina, USA
Distance from station: W 28mi, 45km
Updated: Tue, 18-Jun-2019 6:35am EDT
Mist, Clear
Mist, Clear
 Wind from calm
Wind: Calm
Temperature: 68°F , 20°C
Dew Point: 68°F , 20°C
Humidity: 100%
Barometer: 30.06 inHg , 1017.9 hPa
Summary: Mist
Clouds: Clear
Visibility: 4 miles , 6 km
2019/06/18 10:35 KHYW 181035Z AUTO 00000KT 4SM BR CLR 20/20 A3006 RMK AO2 LTG DSNT E
 
KSUT - Southport, North Carolina, USA
Distance from station: E 32mi, 51km
Updated: Tue, 18-Jun-2019 6:20am EDT
Partly cloudy
Partly cloudy
 Wind from SSW
Wind: SSW 6 mph , 9 km/h
Temperature: 77°F , 25°C
Dew Point: 75°F , 24°C
Humidity: 94%
Barometer: 30.07 inHg , 1018.3 hPa
Clouds: Partly cloudy
Visibility: 10 miles , 16 km
Cloud details: Partly cloudy 1100 ft
2019/06/18 10:20 KSUT 181020Z AUTO 21005KT 10SM SCT011 25/24 A3007 RMK AO2 T02520236
KMAO - Marion, South Carolina, USA
Distance from station: WNW 45mi, 73km
Updated: Tue, 18-Jun-2019 6:35am EDT
Partly cloudy
Partly cloudy
 Wind from S
Wind: S 3 mph , 6 km/h
Temperature: 72°F , 22°C
Dew Point: 70°F , 21°C
Humidity: 94%
Barometer: 30.06 inHg , 1017.9 hPa
Clouds: Partly cloudy
Visibility: 7 miles , 11 km
Cloud details: Partly cloudy 200 ft
2019/06/18 10:35 KMAO 181035Z AUTO 18003KT 7SM SCT002 22/21 A3006 RMK AO2
 
KEYF - Elizabethtown, North Carolina, USA
Distance from station: N 49mi, 79km
Updated: Tue, 18-Jun-2019 6:20am EDT
Mist, Overcast
Mist, Overcast
 Wind from SSW
Wind: SSW 6 mph , 9 km/h
Temperature: 73°F , 23°C
Dew Point: 73°F , 23°C
Humidity: 100%
Barometer: 30.06 inHg , 1017.9 hPa
Summary: Mist
Clouds: Overcast
Visibility: 7 miles , 11 km
Cloud details: Overcast 400 ft
2019/06/18 10:20 KEYF 181020Z AUTO 20005KT 7SM BR OVC004 23/23 A3006 RMK AO2 T02300225
KILM - Wilmington, North Carolina, USA
Distance from station: ENE 49mi, 79km
Updated: Tue, 18-Jun-2019 5:53am EDT
Clear
Clear
 Wind from SSW
Wind: SSW 6 mph , 9 km/h
Temperature: 75°F , 24°C
Dew Point: 73°F , 23°C
Humidity: 94%
Barometer: 30.06 inHg , 1017.9 hPa
Clouds: Clear
Visibility: 10 miles , 16 km
2019/06/18 09:53 KILM 180953Z AUTO 20005KT 10SM CLR 24/23 A3006 RMK AO2 SLP178 T02440228 $